Time;durP1;ratioP1;P1;durP2;ratioP2;P2;SDS_P1;SDS_P2;PMS_P1;PMS_P2;Temp;Humidity;BMP_temperature;BMP_pressure;BME280_temperature;BME280_humidity;BME280_pressure;Samples;Min_cycle;Max_cycle;Signal;HPM_P1;HPM_P2
2023/12/29 00:02:42;;;;;;;1.35;0.45;;;17.80;81.40;;;;;;4882656;27;45590;-52
2023/12/29 00:05:17;;;;;;;1.25;0.40;;;17.80;81.10;;;;;;4876362;27;46809;-53
2023/12/29 00:08:08;;;;;;;1.05;0.60;;;17.90;81.10;;;;;;4881893;27;45520;-52
2023/12/29 00:11:06;;;;;;;1.92;0.68;;;17.90;81.20;;;;;;4892323;27;45469;-53
2023/12/29 00:13:34;;;;;;;1.52;0.40;;;17.90;81.00;;;;;;4857247;27;46960;-53
2023/12/29 00:16:07;;;;;;;2.30;0.65;;;17.90;81.10;;;;;;4869577;27;45483;-53
2023/12/29 00:19:07;;;;;;;4.03;0.80;;;17.90;81.00;;;;;;4858711;27;45220;-53
2023/12/29 00:21:43;;;;;;;0.90;0.40;;;17.90;81.30;;;;;;4890148;27;45711;-53
2023/12/29 00:24:32;;;;;;;1.40;0.50;;;17.90;80.80;;;;;;4869205;27;47033;-53
2023/12/29 00:27:12;;;;;;;1.83;0.50;;;17.90;81.00;;;;;;4897665;27;45307;-52
2023/12/29 00:29:39;;;;;;;1.17;0.60;;;17.90;81.10;;;;;;4866107;27;45266;-53
2023/12/29 00:32:28;;;;;;;1.20;0.35;;;17.90;81.30;;;;;;4889601;27;45745;-53
2023/12/29 00:35:20;;;;;;;3.10;0.60;;;17.90;81.70;;;;;;4878802;27;46344;-52
2023/12/29 00:37:47;;;;;;;2.83;0.60;;;17.90;80.90;;;;;;4891540;27;45595;-53
2023/12/29 00:40:49;;;;;;;0.55;0.38;;;17.90;81.00;;;;;;4877654;27;45047;-52
2023/12/29 00:43:50;;;;;;;1.65;0.50;;;17.90;80.70;;;;;;4884685;27;45411;-52
2023/12/29 00:46:28;;;;;;;2.70;0.70;;;17.90;80.50;;;;;;4913365;27;45950;-53
2023/12/29 00:49:21;;;;;;;2.08;0.40;;;17.90;80.70;;;;;;4888798;27;45527;-53
2023/12/29 00:51:49;;;;;;;2.17;0.70;;;17.80;80.20;;;;;;4854022;27;45580;-53
2023/12/29 00:54:31;;;;;;;2.92;0.57;;;17.80;80.50;;;;;;4891100;27;45454;-53
2023/12/29 00:56:57;;;;;;;0.55;0.28;;;17.80;80.10;;;;;;4912949;27;46081;-53
2023/12/29 01:00:01;;;;;;;3.85;0.73;;;17.80;80.20;;;;;;4898532;27;45174;-52
2023/12/29 01:02:28;;;;;;;1.27;0.50;;;17.80;80.70;;;;;;4859373;27;45056;-53
2023/12/29 01:05:12;;;;;;;1.15;0.40;;;17.80;80.70;;;;;;4880750;27;45226;-53
2023/12/29 01:07:39;;;;;;;1.02;0.40;;;17.80;80.40;;;;;;4859495;27;45862;-52
2023/12/29 01:10:27;;;;;;;1.17;0.55;;;17.80;80.20;;;;;;4904191;27;45268;-53
2023/12/29 01:12:55;;;;;;;2.17;0.68;;;17.90;80.50;;;;;;4884668;27;45424;-53
2023/12/29 01:15:29;;;;;;;1.58;0.50;;;17.90;80.30;;;;;;4869893;27;45305;-53
2023/12/29 01:17:58;;;;;;;1.83;0.52;;;17.90;79.70;;;;;;4886085;27;45996;-53
2023/12/29 01:20:58;;;;;;;1.20;0.50;;;17.90;80.20;;;;;;4888452;27;45537;-53
2023/12/29 01:23:37;;;;;;;2.10;0.55;;;17.90;80.40;;;;;;4873285;27;45349;-53
2023/12/29 01:26:04;;;;;;;3.22;0.60;;;17.90;80.50;;;;;;4895766;27;45507;-53
2023/12/29 01:28:31;;;;;;;1.38;0.63;;;17.90;80.50;;;;;;4851912;27;46287;-53
2023/12/29 01:31:01;;;;;;;0.98;0.50;;;17.90;80.00;;;;;;4884497;27;45653;-53
2023/12/29 01:33:52;;;;;;;0.95;0.50;;;17.90;80.00;;;;;;4896980;27;45460;-53
2023/12/29 01:36:19;;;;;;;2.00;0.60;;;17.90;79.40;;;;;;4887886;27;45213;-53
2023/12/29 01:39:10;;;;;;;1.30;0.55;;;17.90;79.20;;;;;;4895675;27;46163;-53
2023/12/29 01:41:52;;;;;;;2.38;0.60;;;17.90;80.10;;;;;;4881554;27;45303;-53
2023/12/29 01:44:32;;;;;;;1.65;0.57;;;17.90;79.20;;;;;;4888714;27;45627;-53
2023/12/29 01:47:28;;;;;;;1.13;0.60;;;17.90;79.40;;;;;;4873016;27;45156;-53
2023/12/29 01:49:56;;;;;;;2.05;0.60;;;17.90;80.30;;;;;;4856745;27;46973;-53
2023/12/29 01:52:23;;;;;;;1.52;0.50;;;17.90;80.10;;;;;;4879713;27;45317;-53
2023/12/29 01:55:16;;;;;;;2.83;0.50;;;17.80;80.00;;;;;;4899210;27;45423;-53
2023/12/29 01:57:56;;;;;;;1.15;0.55;;;17.80;80.00;;;;;;4885585;27;45389;-53
2023/12/29 02:00:24;;;;;;;3.38;0.73;;;17.80;79.40;;;;;;4904213;27;45936;-53
2023/12/29 02:03:05;;;;;;;0.63;0.30;;;17.80;78.50;;;;;;4863582;27;45196;-53
2023/12/29 02:05:52;;;;;;;1.60;0.47;;;17.80;78.90;;;;;;4895167;27;45517;-53
2023/12/29 02:08:39;;;;;;;3.45;0.60;;;17.80;79.60;;;;;;4865564;27;45417;-53
2023/12/29 02:11:33;;;;;;;1.77;0.38;;;17.80;79.40;;;;;;4888454;27;46057;-53
2023/12/29 02:14:02;;;;;;;2.35;0.80;;;17.80;79.70;;;;;;4868051;27;45418;-53
2023/12/29 02:17:11;;;;;;;2.55;0.60;;;17.80;79.20;;;;;;4874505;27;45769;-53
2023/12/29 02:20:01;;;;;;;1.30;0.63;;;17.80;78.90;;;;;;4903675;27;45358;-53
2023/12/29 02:22:30;;;;;;;2.25;0.65;;;17.90;79.30;;;;;;4874830;27;47542;-53
2023/12/29 02:24:58;;;;;;;1.58;0.68;;;17.90;78.90;;;;;;4898343;27;45372;-53
2023/12/29 02:27:51;;;;;;;3.15;0.70;;;17.90;79.30;;;;;;4894246;27;45195;-53
2023/12/29 02:30:40;;;;;;;2.75;0.70;;;17.90;78.90;;;;;;4872482;27;46098;-53
2023/12/29 02:33:38;;;;;;;2.95;0.88;;;17.90;78.90;;;;;;4901340;27;45980;-53
2023/12/29 02:36:30;;;;;;;1.85;0.57;;;17.90;79.10;;;;;;4905379;27;44943;-53
2023/12/29 02:39:24;;;;;;;2.80;0.70;;;17.80;78.80;;;;;;4862677;27;45511;-53
2023/12/29 02:41:54;;;;;;;1.02;0.40;;;17.90;78.30;;;;;;4875108;27;45320;-53
2023/12/29 02:44:31;;;;;;;2.50;0.57;;;17.90;79.00;;;;;;4889374;27;46364;-53
2023/12/29 02:47:23;;;;;;;3.08;0.60;;;17.90;79.10;;;;;;4887860;27;45405;-52
2023/12/29 02:50:06;;;;;;;1.15;0.63;;;17.80;78.90;;;;;;4890047;27;45267;-53
2023/12/29 02:53:00;;;;;;;3.50;0.70;;;17.90;79.30;;;;;;4901658;27;45395;-53
2023/12/29 02:55:29;;;;;;;2.42;0.70;;;17.90;79.20;;;;;;4867771;27;46146;-53
2023/12/29 02:58:15;;;;;;;2.28;0.68;;;17.80;79.10;;;;;;4869791;27;45466;-53
2023/12/29 03:01:19;;;;;;;1.83;0.80;;;17.80;79.40;;;;;;4881423;27;45352;-53
2023/12/29 03:04:02;;;;;;;2.10;0.60;;;17.80;80.20;;;;;;4867693;27;45501;-53
2023/12/29 03:06:54;;;;;;;2.45;0.52;;;17.80;80.20;;;;;;4857270;27;45873;-53
2023/12/29 03:09:21;;;;;;;1.25;0.60;;;17.80;79.90;;;;;;4902118;27;45529;-53
2023/12/29 03:12:07;;;;;;;1.10;0.55;;;17.80;79.80;;;;;;4899074;27;45703;-53
2023/12/29 03:14:59;;;;;;;0.93;0.47;;;17.80;79.70;;;;;;4870903;27;45462;-53
2023/12/29 03:18:03;;;;;;;1.20;0.70;;;17.80;79.70;;;;;;4899798;27;46105;-52
2023/12/29 03:20:31;;;;;;;1.45;0.63;;;17.80;79.60;;;;;;4880484;27;45429;-53
2023/12/29 03:22:58;;;;;;;1.77;0.70;;;17.80;79.30;;;;;;4879226;27;45666;-53
2023/12/29 03:25:45;;;;;;;1.05;0.50;;;17.80;79.20;;;;;;4868863;27;45662;-53
2023/12/29 03:28:13;;;;;;;3.53;0.65;;;17.90;79.40;;;;;;4896980;27;46174;-53
2023/12/29 03:31:07;;;;;;;3.08;0.80;;;17.90;79.00;;;;;;4861700;27;45541;-53
2023/12/29 03:33:39;;;;;;;3.03;0.68;;;17.90;78.70;;;;;;4873833;27;45207;-53
2023/12/29 03:36:09;;;;;;;3.13;0.55;;;17.90;78.60;;;;;;4887459;27;45455;-53
2023/12/29 03:38:37;;;;;;;3.25;0.70;;;17.90;78.40;;;;;;4883217;27;46671;-53
2023/12/29 03:41:26;;;;;;;2.83;0.85;;;17.90;78.70;;;;;;4908560;27;45394;-53
2023/12/29 03:43:54;;;;;;;3.13;0.60;;;17.90;78.40;;;;;;4889197;27;45311;-53
2023/12/29 03:46:22;;;;;;;2.08;0.60;;;17.90;78.70;;;;;;4874447;27;45541;-53
2023/12/29 03:49:10;;;;;;;1.33;0.50;;;17.90;78.40;;;;;;4898687;27;45579;-53
2023/12/29 03:51:46;;;;;;;1.45;0.52;;;17.90;78.70;;;;;;4856386;27;45497;-53
2023/12/29 03:54:44;;;;;;;2.90;0.75;;;17.90;78.40;;;;;;4889629;27;45118;-53
2023/12/29 03:57:39;;;;;;;1.98;0.68;;;17.90;78.60;;;;;;4878857;27;45695;-53
2023/12/29 04:00:30;;;;;;;1.42;0.60;;;17.90;78.50;;;;;;4872936;27;46244;-53
2023/12/29 04:03:27;;;;;;;1.05;0.60;;;17.90;78.10;;;;;;4882709;27;45940;-53
2023/12/29 04:06:27;;;;;;;4.93;0.88;;;17.90;79.00;;;;;;4873870;27;45343;-53
2023/12/29 04:09:18;;;;;;;1.02;0.40;;;17.80;78.50;;;;;;4873726;27;45649;-53
2023/12/29 04:11:58;;;;;;;2.03;0.75;;;17.80;78.30;;;;;;4901556;27;46555;-53
2023/12/29 04:14:58;;;;;;;0.90;0.50;;;17.80;79.20;;;;;;4877281;27;45375;-53
2023/12/29 04:17:33;;;;;;;2.05;0.47;;;17.80;78.40;;;;;;4881678;27;45557;-53
2023/12/29 04:20:17;;;;;;;2.22;0.60;;;17.80;78.60;;;;;;4874044;27;45540;-53
2023/12/29 04:23:15;;;;;;;2.05;0.70;;;17.80;78.80;;;;;;4899013;27;47278;-53
2023/12/29 04:25:42;;;;;;;2.88;0.55;;;17.80;78.40;;;;;;4871934;27;45417;-53
2023/12/29 04:28:24;;;;;;;1.50;0.55;;;17.80;78.40;;;;;;4893331;27;45504;-53
2023/12/29 04:30:51;;;;;;;1.15;0.50;;;17.80;78.10;;;;;;4871369;27;45410;-53
2023/12/29 04:33:18;;;;;;;2.17;0.68;;;17.90;78.90;;;;;;4887799;27;47385;-53
2023/12/29 04:35:46;;;;;;;2.80;0.60;;;17.90;77.90;;;;;;4882016;27;45706;-53
2023/12/29 04:38:19;;;;;;;2.35;0.60;;;17.90;78.00;;;;;;4875075;27;45735;-53
2023/12/29 04:40:48;;;;;;;2.42;0.57;;;17.90;77.80;;;;;;4872756;27;45552;-53
2023/12/29 04:43:16;;;;;;;0.82;0.47;;;17.90;77.50;;;;;;4871956;27;46132;-53
2023/12/29 04:45:44;;;;;;;2.25;0.70;;;17.90;78.20;;;;;;4885901;27;45441;-53
2023/12/29 04:48:37;;;;;;;2.28;0.63;;;17.90;77.70;;;;;;4863779;27;45248;-53
2023/12/29 04:51:06;;;;;;;1.42;0.50;;;17.90;77.90;;;;;;4875387;27;45392;-53
2023/12/29 04:53:46;;;;;;;1.75;0.50;;;17.90;78.00;;;;;;4896382;27;46181;-53
2023/12/29 04:56:13;;;;;;;2.38;0.55;;;17.90;77.70;;;;;;4866992;27;45639;-53
2023/12/29 04:59:05;;;;;;;1.63;0.60;;;17.90;78.40;;;;;;4864129;27;45693;-53
2023/12/29 05:01:34;;;;;;;2.13;0.90;;;17.90;77.90;;;;;;4883296;27;45424;-53
2023/12/29 05:04:32;;;;;;;2.35;0.50;;;17.90;77.20;;;;;;4871597;27;45894;-52
2023/12/29 05:09:58;;;;;;;1.95;0.50;;;17.80;77.30;;;;;;4850265;27;45515;-53
2023/12/29 05:12:25;;;;;;;2.22;0.45;;;17.80;77.80;;;;;;4897796;27;45518;-53
2023/12/29 05:15:19;;;;;;;1.42;0.50;;;17.80;77.70;;;;;;4905240;27;46443;-53
2023/12/29 05:18:07;;;;;;;0.75;0.50;;;17.80;77.90;;;;;;4884151;27;45530;-52
2023/12/29 05:20:54;;;;;;;1.92;0.73;;;17.80;77.70;;;;;;4896879;27;45409;-52
2023/12/29 05:39:45;;;;;;;2.30;0.57;;;17.90;77.50;;;;;;6244681;22;1248276;-53
2023/12/29 05:45:09;;;;;;;2.28;0.75;;;17.80;77.10;;;;;;6005529;22;45523;-53
2023/12/29 05:47:35;;;;;;;2.22;0.80;;;17.90;77.40;;;;;;6010741;22;45733;-53
2023/12/29 05:50:02;;;;;;;3.22;0.73;;;17.90;77.20;;;;;;6000968;22;45400;-53
2023/12/29 05:52:29;;;;;;;3.78;0.88;;;17.90;77.70;;;;;;6026248;22;45247;-53
2023/12/29 05:55:18;;;;;;;1.38;0.60;;;17.90;77.10;;;;;;6025335;22;45300;-53
2023/12/29 05:57:44;;;;;;;2.42;0.73;;;17.90;77.70;;;;;;6012872;22;46038;-53
2023/12/29 06:00:39;;;;;;;1.85;0.60;;;17.90;77.30;;;;;;6058924;22;45358;-53
2023/12/29 06:06:38;;;;;;;1.90;0.70;;;17.90;77.40;;;;;;5987776;22;45508;-52
2023/12/29 06:09:36;;;;;;;2.17;0.82;;;17.90;76.90;;;;;;6039323;22;47703;-52
2023/12/29 06:12:17;;;;;;;1.25;0.43;;;17.90;76.60;;;;;;6002600;22;45283;-53
2023/12/29 06:14:57;;;;;;;1.60;0.47;;;17.90;77.00;;;;;;6033506;22;45434;-53
2023/12/29 06:17:35;;;;;;;1.63;0.50;;;17.90;76.40;;;;;;6026898;22;45384;-53
2023/12/29 06:20:20;;;;;;;1.42;0.40;;;17.80;77.40;;;;;;6022335;22;46427;-52
2023/12/29 06:23:01;;;;;;;1.17;0.40;;;17.80;76.30;;;;;;6023758;22;45138;-53
2023/12/29 06:26:01;;;;;;;1.45;0.60;;;17.80;76.40;;;;;;6032204;22;45327;-53
2023/12/29 06:28:49;;;;;;;2.38;0.70;;;17.80;76.60;;;;;;6037277;22;45054;-53
2023/12/29 06:31:40;;;;;;;3.17;0.60;;;17.80;76.40;;;;;;6010444;22;46476;-53
2023/12/29 06:34:28;;;;;;;2.55;0.60;;;17.80;76.70;;;;;;6014810;22;45361;-52
2023/12/29 06:37:07;;;;;;;1.85;0.60;;;17.80;76.60;;;;;;6013853;22;45276;-53
2023/12/29 06:39:34;;;;;;;1.15;0.40;;;17.80;76.30;;;;;;6028136;22;45191;-53
2023/12/29 06:42:01;;;;;;;1.40;0.65;;;17.80;76.30;;;;;;6074191;22;45508;-53
2023/12/29 06:47:28;;;;;;;0.82;0.30;;;17.90;76.50;;;;;;6046793;22;45119;-53
2023/12/29 06:50:12;;;;;;;2.58;0.70;;;17.90;76.40;;;;;;6051045;22;44951;-53
2023/12/29 06:53:10;;;;;;;2.30;0.60;;;17.90;76.50;;;;;;6077836;22;45304;-52
2023/12/29 06:59:20;;;;;;;0.98;0.40;;;17.90;76.40;;;;;;6030330;22;45349;-52
2023/12/29 07:02:20;;;;;;;0.57;0.30;;;17.90;76.40;;;;;;6050901;22;45641;-52
2023/12/29 07:05:05;;;;;;;2.25;0.63;;;17.90;76.40;;;;;;6065297;22;46152;-52
2023/12/29 07:07:43;;;;;;;0.85;0.60;;;17.90;76.50;;;;;;6049351;22;45613;-52
2023/12/29 07:10:19;;;;;;;1.17;0.38;;;17.80;77.40;;;;;;6046852;22;45032;-53
2023/12/29 07:16:11;;;;;;;2.97;0.60;;;17.80;77.40;;;;;;5989102;22;45480;-53
2023/12/29 07:18:39;;;;;;;2.45;0.50;;;17.80;77.10;;;;;;6046344;22;45259;-53
2023/12/29 07:21:06;;;;;;;1.42;0.60;;;17.80;77.50;;;;;;6048666;22;45319;-52
2023/12/29 07:23:54;;;;;;;0.90;0.47;;;17.70;77.20;;;;;;6050128;22;45003;-52
2023/12/29 07:26:40;;;;;;;2.15;0.50;;;17.70;77.30;;;;;;6037662;22;45998;-52
2023/12/29 07:29:08;;;;;;;2.72;0.60;;;17.70;77.20;;;;;;6063918;22;45132;-52
2023/12/29 07:32:07;;;;;;;1.65;0.43;;;17.70;77.30;;;;;;6043369;22;45597;-53
2023/12/29 07:37:48;;;;;;;1.08;0.40;;;17.70;77.00;;;;;;6044044;22;45701;-52
2023/12/29 07:40:34;;;;;;;1.58;0.50;;;17.70;76.80;;;;;;6059835;22;45006;-53
2023/12/29 07:43:06;;;;;;;3.92;0.68;;;17.70;76.40;;;;;;6060251;22;45109;-53
2023/12/29 07:46:01;;;;;;;1.38;0.38;;;17.70;77.50;;;;;;6041313;22;45207;-53
2023/12/29 07:48:53;;;;;;;1.42;0.52;;;17.70;77.50;;;;;;6090814;22;46191;-52
2023/12/29 07:52:05;;;;;;;2.08;0.50;;;17.80;77.70;;;;;;6058880;22;45141;-53
2023/12/29 07:54:33;;;;;;;1.75;0.40;;;17.80;77.70;;;;;;6053919;22;45163;-53
2023/12/29 07:57:00;;;;;;;1.27;0.40;;;17.80;77.80;;;;;;6064440;22;45212;-53
2023/12/29 07:59:53;;;;;;;0.52;0.22;;;17.80;77.80;;;;;;6059586;22;47048;-52
2023/12/29 08:02:26;;;;;;;2.42;0.95;;;17.80;77.80;;;;;;6078437;22;45595;-53
2023/12/29 08:05:06;;;;;;;5.00;0.50;;;17.90;77.80;;;;;;6039266;22;45378;-53
2023/12/29 08:07:50;;;;;;;4.25;0.35;;;17.90;79.50;;;;;;6035129;22;45259;-52
2023/12/29 08:10:32;;;;;;;1.88;0.25;;;17.90;80.50;;;;;;6049274;22;45904;-52
2023/12/29 08:13:20;;;;;;;1.02;0.50;;;17.90;80.30;;;;;;6058807;22;45367;-52
2023/12/29 08:16:00;;;;;;;5.78;0.75;;;18.00;80.10;;;;;;6050970;22;45117;-52
2023/12/29 08:18:37;;;;;;;2.13;0.32;;;18.00;80.10;;;;;;6061569;22;45151;-53
2023/12/29 08:24:35;;;;;;;0.43;0.20;;;18.00;80.00;;;;;;6020594;22;45408;-52
2023/12/29 08:30:08;;;;;;;3.33;0.47;;;18.00;80.20;;;;;;6032850;22;45442;-52
2023/12/29 08:32:49;;;;;;;7.78;0.50;;;18.00;80.70;;;;;;6072352;22;47546;-52
2023/12/29 08:35:24;;;;;;;1.95;0.50;;;18.00;80.30;;;;;;6065368;22;45262;-52
2023/12/29 08:37:51;;;;;;;3.15;0.60;;;18.00;80.30;;;;;;6063141;22;45231;-52
2023/12/29 08:40:19;;;;;;;2.55;0.60;;;18.00;80.20;;;;;;6060906;22;45628;-53
2023/12/29 08:43:17;;;;;;;1.67;0.50;;;18.00;80.10;;;;;;6056289;22;47293;-53
2023/12/29 08:46:00;;;;;;;2.38;0.85;;;18.00;80.20;;;;;;6104452;22;45329;-52
2023/12/29 08:48:42;;;;;;;1.98;0.60;;;18.00;81.20;;;;;;6065980;22;45284;-52
2023/12/29 08:51:31;;;;;;;3.33;0.55;;;18.00;80.60;;;;;;6078716;22;45894;-52
2023/12/29 08:54:28;;;;;;;8.02;1.23;;;17.90;81.00;;;;;;6099061;22;46363;-52
2023/12/29 08:57:17;;;;;;;4.85;0.75;;;17.90;80.80;;;;;;6090634;22;45324;-52
2023/12/29 08:59:44;;;;;;;3.53;1.20;;;17.90;80.90;;;;;;6042062;22;45286;-53
2023/12/29 09:02:30;;;;;;;4.40;1.10;;;17.90;80.90;;;;;;6059139;22;45254;-52
2023/12/29 09:05:25;;;;;;;1.17;0.32;;;17.90;81.10;;;;;;6076986;22;46016;-52
2023/12/29 09:07:51;;;;;;;5.07;1.05;;;17.80;81.00;;;;;;6040393;22;45042;-53
2023/12/29 09:10:44;;;;;;;2.45;0.63;;;17.80;80.80;;;;;;6108129;22;45318;-52
2023/12/29 09:13:12;;;;;;;3.60;1.20;;;17.80;80.90;;;;;;6034218;22;45513;-53
2023/12/29 09:15:57;;;;;;;2.58;0.60;;;17.80;80.60;;;;;;6050536;22;46565;-53
2023/12/29 09:18:35;;;;;;;1.38;0.55;;;17.80;80.70;;;;;;6055406;22;45296;-53
2023/12/29 09:21:02;;;;;;;2.55;0.50;;;17.80;80.50;;;;;;6035450;22;45146;-53
2023/12/29 09:23:32;;;;;;;1.80;0.70;;;17.80;80.40;;;;;;6058866;22;45327;-53
2023/12/29 09:26:03;;;;;;;2.35;0.52;;;17.80;80.50;;;;;;6044703;22;46011;-53
2023/12/29 09:29:01;;;;;;;2.03;0.63;;;17.80;80.50;;;;;;6105873;22;45403;-53
2023/12/29 09:31:52;;;;;;;3.90;0.75;;;17.70;80.20;;;;;;6059452;22;45335;-53
2023/12/29 09:34:27;;;;;;;2.40;0.65;;;17.80;79.80;;;;;;6058831;22;45430;-53
2023/12/29 09:37:20;;;;;;;1.85;0.68;;;17.80;79.40;;;;;;6067519;22;46519;-52
2023/12/29 09:40:16;;;;;;;0.70;0.30;;;17.90;79.50;;;;;;6060762;22;45297;-53
2023/12/29 09:42:59;;;;;;;2.97;0.55;;;17.80;79.60;;;;;;6043499;22;45305;-53
2023/12/29 09:45:56;;;;;;;1.83;0.50;;;17.80;79.80;;;;;;6032666;22;45285;-53
2023/12/29 09:48:44;;;;;;;3.03;0.40;;;17.80;79.80;;;;;;6050784;22;47550;-54
2023/12/29 09:51:11;;;;;;;1.50;0.40;;;17.80;80.00;;;;;;6051441;22;45238;-53
2023/12/29 09:57:26;;;;;;;1.55;0.70;;;17.80;80.20;;;;;;6012069;22;45191;-53
2023/12/29 09:59:54;;;;;;;1.88;0.50;;;17.80;80.20;;;;;;6050659;22;47689;-53
2023/12/29 10:02:23;;;;;;;1.67;0.40;;;17.80;80.80;;;;;;6052725;22;45076;-53
2023/12/29 10:04:51;;;;;;;5.00;0.60;;;17.80;80.90;;;;;;6049486;22;45115;-53
2023/12/29 10:10:43;;;;;;;5.68;0.75;;;17.90;81.10;;;;;;6027284;22;46328;-53
2023/12/29 10:13:12;;;;;;;4.32;0.90;;;18.00;82.00;;;;;;6048122;22;45469;-53
2023/12/29 10:16:07;;;;;;;2.65;0.80;;;18.00;81.50;;;;;;6064451;22;45081;-53
2023/12/29 10:35:25;;;;;;;1.27;0.43;;;18.10;80.80;;;;;;5988504;22;1237337;-53
2023/12/29 10:41:14;;;;;;;0.90;0.43;;;18.10;80.50;;;;;;5970333;22;45143;-52
2023/12/29 10:43:42;;;;;;;2.47;0.47;;;18.10;80.60;;;;;;6004268;22;47723;-53
2023/12/29 10:46:32;;;;;;;4.47;0.47;;;18.10;80.30;;;;;;6012008;22;45642;-53
2023/12/29 10:49:14;;;;;;;1.38;0.60;;;18.10;80.40;;;;;;5979935;22;45392;-53
2023/12/29 10:51:43;;;;;;;3.67;0.57;;;18.10;80.00;;;;;;5993435;22;45089;-53
2023/12/29 10:54:28;;;;;;;1.23;0.65;;;18.10;79.50;;;;;;5978188;22;46512;-53
2023/12/29 10:57:03;;;;;;;0.65;0.43;;;18.10;79.80;;;;;;5984767;22;45724;-53
2023/12/29 10:59:42;;;;;;;1.13;0.50;;;18.10;79.80;;;;;;6013395;22;45181;-53
2023/12/29 11:02:15;;;;;;;2.13;0.40;;;18.10;79.80;;;;;;5994443;22;45317;-53
2023/12/29 11:04:56;;;;;;;1.55;0.38;;;18.10;79.80;;;;;;5996582;22;46058;-53
2023/12/29 11:07:40;;;;;;;2.33;0.68;;;18.10;79.60;;;;;;5967222;22;45448;-53
2023/12/29 11:10:19;;;;;;;1.58;0.43;;;18.10;80.10;;;;;;6009963;22;45359;-52
2023/12/29 11:13:14;;;;;;;2.65;0.47;;;18.10;79.70;;;;;;5997962;22;45008;-52
2023/12/29 11:16:17;;;;;;;3.28;0.50;;;18.00;79.40;;;;;;6004483;22;46586;-52
2023/12/29 11:19:06;;;;;;;1.65;0.38;;;18.00;79.40;;;;;;6028919;22;45195;-53
2023/12/29 11:21:50;;;;;;;1.42;0.20;;;18.00;79.60;;;;;;5991590;22;45264;-53
2023/12/29 11:24:40;;;;;;;1.95;0.40;;;18.00;79.40;;;;;;5995952;22;45128;-53
2023/12/29 11:27:11;;;;;;;1.83;0.70;;;18.00;79.40;;;;;;5995989;22;47641;-53
2023/12/29 11:30:04;;;;;;;1.02;0.55;;;18.00;79.20;;;;;;5980875;22;45378;-53
2023/12/29 11:32:47;;;;;;;1.88;0.40;;;18.00;79.50;;;;;;5986134;22;45409;-54
2023/12/29 11:35:50;;;;;;;2.70;0.52;;;18.00;79.40;;;;;;5985117;22;45336;-53
2023/12/29 11:38:52;;;;;;;1.73;0.40;;;18.00;80.00;;;;;;5962253;22;47518;-53
2023/12/29 11:41:57;;;;;;;1.75;0.40;;;18.00;79.90;;;;;;5977255;22;45388;-53
2023/12/29 11:44:28;;;;;;;1.92;0.60;;;18.00;79.90;;;;;;5988786;22;45300;-53
2023/12/29 11:47:41;;;;;;;2.85;0.52;;;18.00;80.00;;;;;;6008194;22;45446;-53
2023/12/29 11:50:30;;;;;;;2.90;0.65;;;18.00;80.00;;;;;;5982377;22;45282;-53
2023/12/29 11:53:31;;;;;;;0.68;0.30;;;18.00;80.10;;;;;;5998330;22;45083;-53
2023/12/29 11:59:22;;;;;;;2.05;0.50;;;18.00;80.40;;;;;;5961818;22;45276;-53
2023/12/29 12:01:58;;;;;;;2.28;0.30;;;17.90;80.60;;;;;;5976304;22;46695;-52
2023/12/29 12:04:54;;;;;;;2.45;0.50;;;17.90;81.70;;;;;;5975160;22;45500;-53
2023/12/29 12:08:08;;;;;;;1.52;0.30;;;18.00;81.20;;;;;;5965586;22;45401;-53
2023/12/29 12:10:42;;;;;;;0.73;0.30;;;18.00;81.10;;;;;;5974181;22;45537;-53
2023/12/29 12:16:51;;;;;;;1.08;0.40;;;18.00;80.80;;;;;;6004495;22;44865;-53
2023/12/29 12:19:35;;;;;;;3.30;1.10;;;18.10;80.90;;;;;;5989684;22;45301;-53
2023/12/29 12:22:02;;;;;;;2.05;0.40;;;18.10;81.00;;;;;;5988186;22;45544;-53
2023/12/29 12:24:45;;;;;;;1.33;0.50;;;18.10;81.00;;;;;;6020914;22;46179;-53
2023/12/29 12:27:17;;;;;;;0.60;0.30;;;18.00;81.10;;;;;;6005136;22;45396;-53
2023/12/29 12:29:59;;;;;;;0.93;0.40;;;18.00;81.10;;;;;;5999155;22;45391;-53
2023/12/29 12:32:57;;;;;;;0.52;0.20;;;17.90;81.20;;;;;;6015119;22;45500;-53
2023/12/29 12:35:54;;;;;;;2.88;0.52;;;17.90;81.30;;;;;;6018575;22;45428;-52
2023/12/29 12:38:23;;;;;;;0.38;0.20;;;17.90;81.20;;;;;;6004343;22;45115;-53
2023/12/29 12:41:11;;;;;;;1.50;0.40;;;17.90;81.20;;;;;;5975571;22;45261;-53
2023/12/29 12:43:51;;;;;;;1.50;0.60;;;17.90;81.00;;;;;;5982358;22;45409;-53
2023/12/29 12:49:21;;;;;;;1.08;0.25;;;17.90;81.00;;;;;;5982099;22;45401;-53
2023/12/29 12:52:05;;;;;;;1.77;0.40;;;17.90;80.80;;;;;;6045140;22;45286;-53
2023/12/29 12:54:42;;;;;;;1.60;0.20;;;17.90;81.50;;;;;;6010972;22;45340;-52
2023/12/29 12:57:25;;;;;;;0.80;0.40;;;17.90;80.60;;;;;;6008614;22;45807;-53
2023/12/29 13:00:02;;;;;;;1.08;0.40;;;17.90;80.40;;;;;;5983565;22;45352;-53
2023/12/29 13:02:38;;;;;;;1.00;0.40;;;18.00;80.70;;;;;;5989779;22;45363;-53
2023/12/29 13:08:30;;;;;;;2.22;0.35;;;18.00;80.40;;;;;;6005553;22;45197;-53
2023/12/29 13:11:00;;;;;;;1.83;0.50;;;18.00;80.30;;;;;;5976791;22;44897;-53
2023/12/29 13:14:00;;;;;;;0.88;0.20;;;18.00;80.20;;;;;;5986613;22;45379;-53
2023/12/29 13:16:46;;;;;;;1.52;0.40;;;18.00;80.20;;;;;;5986996;22;45358;-53
2023/12/29 13:19:27;;;;;;;1.02;0.30;;;18.00;80.00;;;;;;6037202;22;45892;-53
2023/12/29 13:22:06;;;;;;;0.85;0.22;;;18.00;80.00;;;;;;6015047;22;45086;-53
2023/12/29 13:24:48;;;;;;;2.10;0.30;;;18.00;79.90;;;;;;5987206;22;45346;-53
2023/12/29 13:27:29;;;;;;;0.55;0.20;;;18.00;79.90;;;;;;5988290;22;45472;-53
2023/12/29 13:30:28;;;;;;;0.98;0.38;;;18.00;79.90;;;;;;5997888;22;47146;-53
2023/12/29 13:33:43;;;;;;;0.45;0.30;;;18.00;79.60;;;;;;6021351;22;45181;-53
2023/12/29 13:39:55;;;;;;;0.82;0.45;;;18.00;79.50;;;;;;5980181;22;45380;-53
2023/12/29 13:42:37;;;;;;;0.38;0.20;;;18.00;79.40;;;;;;6003366;22;46228;-53
2023/12/29 13:45:22;;;;;;;0.50;0.20;;;17.90;79.20;;;;;;5993542;22;45325;-53
2023/12/29 13:48:16;;;;;;;1.65;0.43;;;17.90;79.20;;;;;;5993981;22;45129;-53
2023/12/29 13:51:04;;;;;;;1.17;0.40;;;17.90;78.80;;;;;;5982158;22;45393;-53
2023/12/29 13:53:42;;;;;;;1.02;0.30;;;17.90;78.90;;;;;;6015420;22;46461;-53
2023/12/29 13:56:13;;;;;;;0.40;0.20;;;17.90;79.20;;;;;;5994309;22;45391;-53
2023/12/29 13:59:15;;;;;;;1.38;0.40;;;17.90;78.90;;;;;;5986067;22;45432;-53
2023/12/29 14:01:42;;;;;;;0.17;0.17;;;17.90;78.60;;;;;;5972035;22;45285;-53
2023/12/29 14:07:03;;;;;;;0.38;0.20;;;17.90;79.00;;;;;;5967620;22;45332;-53
2023/12/29 14:10:02;;;;;;;0.20;0.20;;;17.80;78.60;;;;;;6008864;22;45170;-52
2023/12/29 14:12:30;;;;;;;1.27;0.17;;;17.80;78.40;;;;;;6012133;22;45988;-53
2023/12/29 14:15:20;;;;;;;0.63;0.20;;;17.80;78.60;;;;;;6019942;22;46045;-53
2023/12/29 14:17:47;;;;;;;0.52;0.30;;;17.80;78.90;;;;;;6003339;22;45127;-52
2023/12/29 14:20:44;;;;;;;0.50;0.28;;;17.80;78.60;;;;;;5996752;22;45182;-53
2023/12/29 14:24:08;;;;;;;0.75;0.30;;;17.80;78.50;;;;;;6004777;22;45163;-52
2023/12/29 14:44:01;;;;;;;1.13;0.33;;;17.90;78.20;;;;;;5075427;22;25697826;-52
2023/12/29 14:46:48;;;;;;;1.70;0.30;;;17.80;78.00;;;;;;6069383;22;45308;-52
2023/12/29 14:49:46;;;;;;;1.20;0.35;;;17.80;77.80;;;;;;6073550;22;45399;-52
2023/12/29 14:52:14;;;;;;;0.52;0.22;;;17.80;77.90;;;;;;6059885;22;46552;-52
2023/12/29 14:55:12;;;;;;;0.95;0.50;;;17.80;77.80;;;;;;6069082;22;45156;-52
2023/12/29 14:57:58;;;;;;;1.55;0.30;;;17.80;77.90;;;;;;6062148;22;45441;-52
2023/12/29 15:00:33;;;;;;;1.25;0.38;;;17.80;77.80;;;;;;6057705;22;45182;-52
2023/12/29 15:03:00;;;;;;;0.88;0.28;;;17.80;78.00;;;;;;6067794;22;46164;-52
2023/12/29 15:05:48;;;;;;;0.70;0.17;;;17.80;78.00;;;;;;6055693;22;45284;-52
2023/12/29 15:08:34;;;;;;;0.88;0.40;;;17.70;77.90;;;;;;6056243;22;45436;-52
2023/12/29 15:11:33;;;;;;;0.88;0.28;;;17.80;77.90;;;;;;6067129;22;45167;-52
2023/12/29 15:14:30;;;;;;;1.05;0.38;;;17.70;77.80;;;;;;6063906;22;45924;-52
2023/12/29 15:17:17;;;;;;;0.50;0.30;;;17.70;77.80;;;;;;6075966;22;45132;-52
2023/12/29 15:19:45;;;;;;;0.82;0.40;;;17.70;77.60;;;;;;6078218;22;45209;-52
2023/12/29 15:22:12;;;;;;;0.80;0.20;;;17.70;77.80;;;;;;6070884;22;44975;-52
2023/12/29 15:24:50;;;;;;;1.02;0.30;;;17.70;77.70;;;;;;6049963;22;46046;-52
2023/12/29 15:27:42;;;;;;;0.65;0.20;;;17.70;77.70;;;;;;6052826;22;45387;-52
2023/12/29 15:30:12;;;;;;;0.43;0.20;;;17.70;77.70;;;;;;6095911;22;45420;-52
2023/12/29 15:32:42;;;;;;;0.88;0.20;;;17.80;77.60;;;;;;6062754;22;45206;-52
2023/12/29 15:35:17;;;;;;;0.35;0.10;;;17.70;77.50;;;;;;6071081;22;46737;-52
2023/12/29 15:38:11;;;;;;;0.60;0.30;;;17.80;77.70;;;;;;6099163;22;45363;-52
2023/12/29 15:40:39;;;;;;;0.40;0.20;;;17.80;77.70;;;;;;6063445;22;45272;-52
2023/12/29 15:43:12;;;;;;;0.85;0.20;;;17.90;77.90;;;;;;6052621;22;45334;-52
2023/12/29 15:45:39;;;;;;;0.20;0.20;;;17.90;78.00;;;;;;6057445;22;46382;-52
2023/12/29 15:48:08;;;;;;;1.38;0.30;;;17.90;79.10;;;;;;6062414;22;45100;-52
2023/12/29 15:50:35;;;;;;;1.85;0.40;;;17.90;78.70;;;;;;6050109;22;45157;-52